Time;durP1;ratioP1;P1;durP2;ratioP2;P2;SDS_P1;SDS_P2;PMS_P1;PMS_P2;Temp;Humidity;BMP_temperature;BMP_pressure;BME280_temperature;BME280_humidity;BME280_pressure;Samples;Min_cycle;Max_cycle;Signal;HPM_P1;HPM_P2
2022/10/17 00:01:50;;;;;;;9.35;2.92;;;;;;;;;;5803892;24;20024;-88
2022/10/17 00:04:41;;;;;;;9.98;2.80;;;;;;;;;;5862808;24;20088;-88
2022/10/17 00:08:17;;;;;;;6.28;2.78;;;;;;;;;;5866327;24;20018;-87
2022/10/17 00:11:28;;;;;;;4.50;2.42;;;;;;;;;;5822261;24;20085;-92
2022/10/17 00:15:28;;;;;;;5.78;2.30;;;;;;;;;;5800681;24;20023;-92
2022/10/17 00:18:41;;;;;;;5.03;2.35;;;;;;;;;;5832839;24;20030;-92
2022/10/17 00:21:48;;;;;;;4.35;2.00;;;;;;;;;;5860565;24;20017;-92
2022/10/17 00:25:04;;;;;;;5.18;1.98;;;;;;;;;;5900354;24;20018;-92
2022/10/17 00:31:44;;;;;;;7.05;2.53;;;;;;;;;;5933444;24;20155;-87
2022/10/17 00:35:09;;;;;;;5.00;2.22;;;;;;;;;;5967731;23;20091;-87
2022/10/17 00:38:25;;;;;;;4.53;2.55;;;;;;;;;;5981049;23;20028;-87
2022/10/17 00:41:52;;;;;;;7.60;2.75;;;;;;;;;;5962245;23;20024;-94
2022/10/17 00:46:15;;;;;;;4.72;1.80;;;;;;;;;;6047430;23;20027;-94
2022/10/17 00:50:12;;;;;;;;;;;;;;;;;;6090485;23;20515;-94
2022/10/17 01:03:53;;;;;;;5.63;2.20;;;;;;;;;;6125242;23;20034;-91
2022/10/17 01:08:08;;;;;;;7.32;2.20;;;;;;;;;;6072521;23;20022;-92
2022/10/17 01:12:14;;;;;;;8.48;2.28;;;;;;;;;;6016033;23;20065;-95
2022/10/17 01:16:37;;;;;;;5.53;2.15;;;;;;;;;;6065315;23;20450;-94
2022/10/17 01:26:05;;;;;;;5.97;2.25;;;;;;;;;;6043323;23;20015;-94
2022/10/17 01:29:56;;;;;;;7.22;2.40;;;;;;;;;;5937784;24;20025;-94
2022/10/17 01:34:08;;;;;;;3.83;2.22;;;;;;;;;;5893264;24;20449;-94
2022/10/17 01:46:07;;;;;;;8.00;2.15;;;;;;;;;;5876101;24;20045;-88
2022/10/17 01:49:01;;;;;;;9.57;2.55;;;;;;;;;;5850136;24;20048;-87
2022/10/17 01:52:08;;;;;;;6.05;2.40;;;;;;;;;;5776922;24;20018;-93
2022/10/17 02:00:06;;;;;;;8.63;2.72;;;;;;;;;;5849816;24;20014;-93
2022/10/17 02:07:27;;;;;;;4.70;2.33;;;;;;;;;;5837255;24;20479;-93
2022/10/17 02:15:47;;;;;;;5.75;2.40;;;;;;;;;;5901561;24;20045;-94
2022/10/17 02:20:15;;;;;;;8.07;2.80;;;;;;;;;;5895544;24;20130;-95
2022/10/17 02:27:43;;;;;;;4.72;2.85;;;;;;;;;;5845438;24;20028;-88
2022/10/17 02:32:13;;;;;;;8.25;3.00;;;;;;;;;;5850997;24;20030;-93
2022/10/17 02:36:08;;;;;;;5.35;2.92;;;;;;;;;;5826155;24;20017;-93
2022/10/17 02:39:39;;;;;;;6.05;2.78;;;;;;;;;;5908406;24;20017;-94
2022/10/17 02:43:53;;;;;;;4.28;2.58;;;;;;;;;;5877100;24;20033;-92
2022/10/17 02:48:26;;;;;;;6.20;3.42;;;;;;;;;;5894504;24;20028;-92
2022/10/17 03:05:29;;;;;;;4.90;2.80;;;;;;;;;;6030093;23;20049;-93
2022/10/17 03:12:40;;;;;;;5.18;2.83;;;;;;;;;;6058378;23;20014;-93
2022/10/17 03:17:12;;;;;;;3.85;2.65;;;;;;;;;;5952544;24;20050;-94
2022/10/17 03:21:44;;;;;;;6.13;2.65;;;;;;;;;;6043472;23;20093;-91
2022/10/17 03:33:24;;;;;;;5.00;2.38;;;;;;;;;;6041906;23;20018;-93
2022/10/17 03:36:49;;;;;;;3.45;2.20;;;;;;;;;;6053487;23;20386;-88
2022/10/17 03:40:00;;;;;;;3.42;2.30;;;;;;;;;;6091421;23;20037;-88
2022/10/17 03:43:47;;;;;;;5.70;2.17;;;;;;;;;;6048949;23;20022;-93
2022/10/17 03:48:21;;;;;;;4.57;2.25;;;;;;;;;;6088759;23;20385;-93
2022/10/17 03:51:59;;;;;;;3.55;2.30;;;;;;;;;;6104550;23;20016;-93
2022/10/17 04:03:22;;;;;;;4.05;2.13;;;;;;;;;;6155745;23;20468;-88
2022/10/17 04:06:40;;;;;;;5.53;2.05;;;;;;;;;;6173133;23;20080;-88
2022/10/17 04:10:14;;;;;;;3.75;2.10;;;;;;;;;;6153762;23;20108;-88
2022/10/17 04:13:30;;;;;;;3.88;2.38;;;;;;;;;;6139842;23;20017;-88
2022/10/17 04:16:48;;;;;;;5.00;2.30;;;;;;;;;;6122918;23;20018;-88
2022/10/17 04:20:38;;;;;;;3.50;2.20;;;;;;;;;;6121870;23;20049;-88
2022/10/17 04:23:53;;;;;;;2.88;2.00;;;;;;;;;;6036154;23;20354;-87
2022/10/17 04:27:10;;;;;;;8.73;2.20;;;;;;;;;;5984105;23;20218;-88
2022/10/17 04:30:10;;;;;;;3.83;2.10;;;;;;;;;;5924026;24;20025;-88
2022/10/17 04:33:06;;;;;;;5.80;2.20;;;;;;;;;;5929126;24;20021;-92
2022/10/17 04:36:53;;;;;;;3.92;1.90;;;;;;;;;;5880688;24;20058;-92
2022/10/17 04:40:56;;;;;;;6.78;2.20;;;;;;;;;;5900031;24;20041;-92
2022/10/17 04:44:17;;;;;;;5.13;2.28;;;;;;;;;;5871160;24;20028;-93
2022/10/17 04:51:13;;;;;;;6.03;2.47;;;;;;;;;;5917194;24;20029;-87
2022/10/17 04:54:45;;;;;;;5.00;1.77;;;;;;;;;;5929511;24;20047;-88
2022/10/17 04:57:46;;;;;;;4.82;2.20;;;;;;;;;;5997656;23;20018;-88
2022/10/17 05:00:36;;;;;;;4.18;2.13;;;;;;;;;;6038506;23;20105;-88
2022/10/17 05:04:29;;;;;;;4.88;2.40;;;;;;;;;;6123684;23;20010;-87
2022/10/17 05:07:52;;;;;;;2.70;1.80;;;;;;;;;;6109466;23;20030;-88
2022/10/17 05:11:05;;;;;;;8.07;2.10;;;;;;;;;;6144731;23;20022;-87
2022/10/17 05:14:05;;;;;;;3.67;2.13;;;;;;;;;;6125321;23;20030;-87
2022/10/17 05:17:36;;;;;;;6.10;2.35;;;;;;;;;;6124316;23;20022;-87
2022/10/17 05:20:31;;;;;;;4.85;1.90;;;;;;;;;;6150361;23;20044;-88
2022/10/17 05:23:26;;;;;;;4.10;2.22;;;;;;;;;;6148501;23;20025;-88
2022/10/17 05:26:41;;;;;;;3.25;2.10;;;;;;;;;;6111524;23;20063;-87
2022/10/17 05:30:21;;;;;;;4.78;2.10;;;;;;;;;;6177748;23;20020;-87
2022/10/17 05:33:23;;;;;;;4.00;2.33;;;;;;;;;;6135739;23;20025;-87
2022/10/17 05:36:36;;;;;;;3.70;2.30;;;;;;;;;;6122492;23;20021;-90
2022/10/17 05:39:45;;;;;;;5.68;2.40;;;;;;;;;;6186893;23;20354;-92
2022/10/17 05:44:21;;;;;;;;;;;;;;;;;;;;;
2022/10/17 05:48:39;;;;;;;3.92;2.38;;;;;;;;;;6017339;23;20020;-93
2022/10/17 05:53:11;;;;;;;5.63;2.40;;;;;;;;;;5902684;24;20391;-93
2022/10/17 05:57:11;;;;;;;4.95;2.25;;;;;;;;;;5924093;24;20445;-92
2022/10/17 06:01:25;;;;;;;3.75;2.20;;;;;;;;;;5912083;24;20037;-93
2022/10/17 06:05:29;;;;;;;3.75;2.30;;;;;;;;;;5900247;24;20092;-87
2022/10/17 06:09:11;;;;;;;5.97;2.42;;;;;;;;;;5895975;24;20040;-87
2022/10/17 06:12:35;;;;;;;4.82;2.53;;;;;;;;;;5896710;24;20049;-92
2022/10/17 06:15:38;;;;;;;5.05;2.15;;;;;;;;;;5926150;24;20417;-92
2022/10/17 06:19:15;;;;;;;3.85;2.10;;;;;;;;;;5932500;24;20020;-93
2022/10/17 06:26:07;;;;;;;4.60;2.45;;;;;;;;;;5938747;24;20068;-93
2022/10/17 06:34:01;;;;;;;4.40;2.75;;;;;;;;;;5938021;24;20016;-93
2022/10/17 06:37:50;;;;;;;5.47;2.65;;;;;;;;;;5929532;24;20021;-93
2022/10/17 06:41:27;;;;;;;6.63;2.80;;;;;;;;;;5928886;24;20032;-94
2022/10/17 06:48:44;;;;;;;3.85;2.58;;;;;;;;;;5918813;24;20017;-93
2022/10/17 06:52:24;;;;;;;10.13;2.80;;;;;;;;;;5949005;24;20040;-93
2022/10/17 06:55:54;;;;;;;6.05;2.40;;;;;;;;;;5892746;24;20465;-94
2022/10/17 07:00:46;;;;;;;5.97;3.17;;;;;;;;;;5949090;24;20035;-93
2022/10/17 07:04:59;;;;;;;4.53;2.58;;;;;;;;;;5929812;24;20048;-93
2022/10/17 07:09:05;;;;;;;4.07;2.70;;;;;;;;;;5873598;24;20363;-92
2022/10/17 07:17:06;;;;;;;6.15;2.63;;;;;;;;;;5873215;24;20017;-92
2022/10/17 07:20:01;;;;;;;4.22;2.42;;;;;;;;;;5793995;24;20084;-93
2022/10/17 07:28:19;;;;;;;5.88;2.80;;;;;;;;;;5781407;24;20035;-93
2022/10/17 07:40:27;;;;;;;7.90;2.75;;;;;;;;;;5829344;24;20019;-92
2022/10/17 07:48:15;;;;;;;7.93;2.95;;;;;;;;;;5855434;24;20026;-94
2022/10/17 07:52:19;;;;;;;5.00;2.95;;;;;;;;;;5845497;24;20075;-93
2022/10/17 07:59:59;;;;;;;5.70;3.10;;;;;;;;;;5895547;24;20026;-92
2022/10/17 08:03:09;;;;;;;5.80;3.17;;;;;;;;;;5871547;24;20065;-93
2022/10/17 08:10:39;;;;;;;8.98;2.90;;;;;;;;;;5872669;24;20021;-94
2022/10/17 08:14:32;;;;;;;7.78;3.28;;;;;;;;;;5934495;24;20029;-94
2022/10/17 08:21:53;;;;;;;4.80;2.60;;;;;;;;;;5872706;24;20026;-94
2022/10/17 08:26:18;;;;;;;6.75;3.08;;;;;;;;;;5845438;24;20065;-93
2022/10/17 08:30:31;;;;;;;4.22;2.67;;;;;;;;;;5872587;24;20128;-93
2022/10/17 08:34:21;;;;;;;4.82;2.83;;;;;;;;;;5777131;24;20042;-94
2022/10/17 08:42:51;;;;;;;5.00;2.78;;;;;;;;;;5792686;24;20023;-94
2022/10/17 08:46:15;;;;;;;4.25;2.67;;;;;;;;;;5779598;24;20023;-94
2022/10/17 08:50:09;;;;;;;6.60;2.47;;;;;;;;;;5796547;24;20050;-94
2022/10/17 08:53:21;;;;;;;4.82;2.75;;;;;;;;;;5770599;24;20027;-94
2022/10/17 08:56:47;;;;;;;7.30;2.67;;;;;;;;;;5746910;24;20039;-93
2022/10/17 09:04:08;;;;;;;6.65;2.75;;;;;;;;;;5652296;25;20033;-93
2022/10/17 09:08:27;;;;;;;8.13;2.78;;;;;;;;;;5680253;25;20107;-93
2022/10/17 09:11:58;;;;;;;6.97;2.70;;;;;;;;;;5716943;25;20056;-93
2022/10/17 09:15:45;;;;;;;5.82;2.67;;;;;;;;;;5740223;25;20044;-93
2022/10/17 09:19:05;;;;;;;6.00;2.70;;;;;;;;;;5722128;25;20033;-93
2022/10/17 09:22:38;;;;;;;5.95;2.35;;;;;;;;;;5733359;25;20124;-93
2022/10/17 09:26:12;;;;;;;4.22;2.50;;;;;;;;;;5700400;25;20079;-93
2022/10/17 09:34:18;;;;;;;4.40;2.67;;;;;;;;;;5780346;24;20047;-93
2022/10/17 09:37:21;;;;;;;4.30;2.60;;;;;;;;;;5770385;24;20028;-93
2022/10/17 09:40:42;;;;;;;6.38;2.22;;;;;;;;;;5773817;24;20038;-94
2022/10/17 09:44:23;;;;;;;3.95;2.53;;;;;;;;;;5735617;24;20020;-94
2022/10/17 09:48:58;;;;;;;8.90;2.83;;;;;;;;;;5826721;24;20024;-93
2022/10/17 10:01:27;;;;;;;5.57;2.20;;;;;;;;;;5763213;24;20032;-94
2022/10/17 10:04:21;;;;;;;4.28;2.38;;;;;;;;;;5823008;24;20027;-93
2022/10/17 10:07:49;;;;;;;6.00;2.50;;;;;;;;;;5840126;24;20052;-93
2022/10/17 10:18:45;;;;;;;6.90;2.88;;;;;;;;;;5753854;24;20036;-92
2022/10/17 10:22:15;;;;;;;5.38;2.65;;;;;;;;;;5723675;24;20033;-93
2022/10/17 10:26:18;;;;;;;6.35;2.63;;;;;;;;;;5707331;25;20036;-93
2022/10/17 10:30:03;;;;;;;5.80;2.78;;;;;;;;;;5742416;24;20024;-93
2022/10/17 10:33:22;;;;;;;6.60;2.67;;;;;;;;;;5873968;24;20026;-93
2022/10/17 10:37:38;;;;;;;7.13;2.92;;;;;;;;;;5874033;24;20477;-93
2022/10/17 10:40:59;;;;;;;5.13;2.40;;;;;;;;;;5753983;24;20468;-92
2022/10/17 10:44:31;;;;;;;5.13;2.50;;;;;;;;;;5780453;24;20407;-93
2022/10/17 10:52:13;;;;;;;6.13;2.72;;;;;;;;;;5846842;24;20026;-93
2022/10/17 10:55:02;;;;;;;5.78;2.75;;;;;;;;;;5802316;24;20027;-93
2022/10/17 11:07:14;;;;;;;5.15;2.75;;;;;;;;;;5929303;24;20012;-93
2022/10/17 11:10:54;;;;;;;6.47;2.17;;;;;;;;;;5908494;24;20442;-93
2022/10/17 11:15:13;;;;;;;5.85;2.35;;;;;;;;;;5965551;24;20036;-93
2022/10/17 11:19:16;;;;;;;4.35;2.60;;;;;;;;;;5951335;24;20065;-93
2022/10/17 11:22:45;;;;;;;9.20;2.60;;;;;;;;;;5939193;24;20457;-93
2022/10/17 11:26:09;;;;;;;;;;;;;;;;;;5983511;24;20119;-93
2022/10/17 11:34:29;;;;;;;5.13;2.70;;;;;;;;;;5955280;24;20021;-93
2022/10/17 11:42:32;;;;;;;6.93;2.90;;;;;;;;;;5899670;24;20058;-93
2022/10/17 11:45:42;;;;;;;5.13;2.83;;;;;;;;;;5806768;24;20061;-93
2022/10/17 11:49:34;;;;;;;7.53;3.10;;;;;;;;;;5838135;24;20022;-93
2022/10/17 11:57:39;;;;;;;7.65;3.03;;;;;;;;;;5849385;24;20022;-93
2022/10/17 12:09:35;;;;;;;7.57;3.30;;;;;;;;;;5851811;24;20022;-93
2022/10/17 12:13:40;;;;;;;6.20;3.22;;;;;;;;;;5828016;24;20566;-92
2022/10/17 12:16:49;;;;;;;11.07;4.05;;;;;;;;;;5824751;24;20023;-92
2022/10/17 12:19:38;;;;;;;8.02;4.20;;;;;;;;;;5797460;24;20102;-92
2022/10/17 12:23:35;;;;;;;9.05;3.70;;;;;;;;;;5827920;24;20360;-92
2022/10/17 12:26:35;;;;;;;9.32;4.25;;;;;;;;;;5790015;24;20031;-92
2022/10/17 12:29:53;;;;;;;8.68;3.88;;;;;;;;;;5804338;24;20041;-94
2022/10/17 12:33:47;;;;;;;7.55;3.72;;;;;;;;;;5795088;24;20027;-93
2022/10/17 12:36:43;;;;;;;5.60;3.42;;;;;;;;;;5104558;27;20384;-88
2022/10/17 12:39:16;;;;;;;6.15;3.17;;;;;;;;;;5075796;28;20044;-88
2022/10/17 12:41:45;;;;;;;9.98;3.40;;;;;;;;;;5087828;28;20032;-88
2022/10/17 12:44:13;;;;;;;6.95;3.67;;;;;;;;;;5088529;28;20042;-89
2022/10/17 12:46:49;;;;;;;9.70;4.15;;;;;;;;;;5087940;28;20386;-89
2022/10/17 12:49:42;;;;;;;6.45;3.70;;;;;;;;;;5086188;28;20028;-88
2022/10/17 12:52:21;;;;;;;6.82;3.90;;;;;;;;;;5078846;28;20054;-88
2022/10/17 12:55:11;;;;;;;8.20;3.65;;;;;;;;;;5082900;28;20478;-89
2022/10/17 12:57:57;;;;;;;6.15;3.50;;;;;;;;;;5088412;28;20044;-89
2022/10/17 13:00:34;;;;;;;8.65;3.88;;;;;;;;;;5078493;28;20082;-88
2022/10/17 13:03:30;;;;;;;9.23;4.28;;;;;;;;;;5106478;28;20147;-85
2022/10/17 13:06:05;;;;;;;;;;;;;;;;;;5089511;28;20740;-90
2022/10/17 13:09:03;;;;;;;12.43;4.65;;;;;;;;;;5104418;28;19931;-88
2022/10/17 13:11:34;;;;;;;7.85;3.60;;;;;;;;;;5100019;28;20047;-89
2022/10/17 13:14:14;;;;;;;7.88;4.13;;;;;;;;;;5076702;28;20393;-90
2022/10/17 13:17:26;;;;;;;7.40;3.85;;;;;;;;;;5091666;28;20028;-89
2022/10/17 13:19:54;;;;;;;10.77;4.38;;;;;;;;;;5092979;28;20089;-88
2022/10/17 13:22:27;;;;;;;12.52;4.13;;;;;;;;;;5090219;28;20040;-89
2022/10/17 13:25:17;;;;;;;7.68;4.22;;;;;;;;;;5094091;28;20066;-88
2022/10/17 13:28:12;;;;;;;12.10;4.43;;;;;;;;;;5094961;28;20113;-89
2022/10/17 13:31:03;;;;;;;10.70;4.38;;;;;;;;;;5091694;28;20036;-89
2022/10/17 13:33:38;;;;;;;7.55;4.68;;;;;;;;;;5091997;28;20059;-89
2022/10/17 13:36:18;;;;;;;9.13;4.20;;;;;;;;;;5091649;28;20504;-90
2022/10/17 13:38:46;;;;;;;10.57;4.72;;;;;;;;;;5105094;28;20048;-88
2022/10/17 13:41:25;;;;;;;12.02;5.65;;;;;;;;;;5089470;28;20040;-89
2022/10/17 13:44:26;;;;;;;9.55;4.82;;;;;;;;;;5094892;28;20056;-88
2022/10/17 13:46:53;;;;;;;8.48;5.20;;;;;;;;;;5083261;28;20436;-90
2022/10/17 13:49:43;;;;;;;11.40;5.05;;;;;;;;;;5068719;28;20044;-90
2022/10/17 13:52:23;;;;;;;12.65;4.93;;;;;;;;;;5077824;28;20490;-88
2022/10/17 13:54:53;;;;;;;11.25;4.38;;;;;;;;;;5073077;28;20563;-90
2022/10/17 13:57:29;;;;;;;11.80;6.00;;;;;;;;;;5076860;28;20036;-89
2022/10/17 14:00:06;;;;;;;10.38;5.72;;;;;;;;;;5076960;28;20040;-90
2022/10/17 14:03:03;;;;;;;10.40;6.03;;;;;;;;;;5070719;28;20040;-90
2022/10/17 14:05:32;;;;;;;11.35;6.60;;;;;;;;;;5075710;28;20556;-89
2022/10/17 14:08:02;;;;;;;13.40;6.25;;;;;;;;;;5077338;28;20036;-88
2022/10/17 14:10:42;;;;;;;11.35;5.35;;;;;;;;;;5073661;28;20050;-89
2022/10/17 14:13:26;;;;;;;13.13;5.43;;;;;;;;;;5075582;28;20043;-89
2022/10/17 14:15:55;;;;;;;12.18;5.80;;;;;;;;;;5077503;28;20389;-89
2022/10/17 14:18:26;;;;;;;12.32;5.95;;;;;;;;;;5087384;28;21062;-89
2022/10/17 14:21:05;;;;;;;11.18;5.38;;;;;;;;;;5075069;28;20046;-90
2022/10/17 14:24:14;;;;;;;8.32;5.22;;;;;;;;;;5060546;28;20044;-91
2022/10/17 14:26:51;;;;;;;9.40;4.63;;;;;;;;;;5075839;28;20040;-92
2022/10/17 14:29:25;;;;;;;8.02;5.10;;;;;;;;;;5074903;28;20051;-89
2022/10/17 14:32:21;;;;;;;8.15;5.05;;;;;;;;;;5076719;28;20052;-90
2022/10/17 14:35:16;;;;;;;12.35;6.00;;;;;;;;;;5065535;28;20394;-89
2022/10/17 14:38:13;;;;;;;12.38;5.45;;;;;;;;;;5079757;28;20052;-90
2022/10/17 14:40:49;;;;;;;12.80;5.85;;;;;;;;;;5074808;28;20071;-88
2022/10/17 14:43:24;;;;;;;9.68;5.35;;;;;;;;;;5077482;28;20037;-90
2022/10/17 14:45:51;;;;;;;9.98;5.45;;;;;;;;;;5076324;28;20036;-89
2022/10/17 14:48:22;;;;;;;8.93;5.32;;;;;;;;;;5076429;28;20036;-90
2022/10/17 14:51:10;;;;;;;12.10;5.20;;;;;;;;;;5061627;28;20052;-89
2022/10/17 14:53:38;;;;;;;9.30;5.35;;;;;;;;;;5078856;28;20037;-91
2022/10/17 14:56:51;;;;;;;10.27;5.30;;;;;;;;;;5076980;28;20040;-89
2022/10/17 14:59:44;;;;;;;8.90;4.97;;;;;;;;;;5072897;28;20048;-89
2022/10/17 15:02:24;;;;;;;11.40;5.63;;;;;;;;;;5059579;28;20140;-88
2022/10/17 15:04:56;;;;;;;9.20;5.63;;;;;;;;;;5080393;28;20042;-90
2022/10/17 15:07:23;;;;;;;11.80;5.50;;;;;;;;;;5079411;28;20046;-89
2022/10/17 15:10:27;;;;;;;13.95;5.97;;;;;;;;;;5094647;28;20036;-89
2022/10/17 15:12:53;;;;;;;10.88;5.72;;;;;;;;;;5078386;28;20051;-89
2022/10/17 15:15:42;;;;;;;8.45;5.43;;;;;;;;;;5077967;28;20276;-89
2022/10/17 15:18:36;;;;;;;12.70;6.13;;;;;;;;;;5055464;28;20595;-89
2022/10/17 15:21:19;;;;;;;12.52;6.05;;;;;;;;;;5074506;28;20036;-89
2022/10/17 15:24:09;;;;;;;10.55;5.63;;;;;;;;;;5076261;28;20090;-91
2022/10/17 15:27:02;;;;;;;10.60;5.55;;;;;;;;;;5060297;28;20170;-90
2022/10/17 15:29:29;;;;;;;12.18;5.47;;;;;;;;;;5057419;28;20032;-89
2022/10/17 15:31:57;;;;;;;10.48;5.43;;;;;;;;;;5072771;28;20519;-88
2022/10/17 15:34:25;;;;;;;12.05;6.22;;;;;;;;;;5076191;28;20036;-89
2022/10/17 15:36:58;;;;;;;12.70;6.00;;;;;;;;;;5077857;28;20056;-89
2022/10/17 15:39:25;;;;;;;13.15;5.97;;;;;;;;;;5076074;28;20547;-90
2022/10/17 15:41:58;;;;;;;11.35;7.15;;;;;;;;;;5093225;28;20059;-89
2022/10/17 15:44:25;;;;;;;10.68;6.00;;;;;;;;;;5073927;28;20123;-89
2022/10/17 15:47:03;;;;;;;13.75;6.32;;;;;;;;;;5073504;28;20123;-89
2022/10/17 15:50:01;;;;;;;10.70;6.20;;;;;;;;;;5088689;28;20039;-90
2022/10/17 15:52:27;;;;;;;9.63;6.25;;;;;;;;;;5074920;28;20040;-90
2022/10/17 15:54:55;;;;;;;11.43;6.43;;;;;;;;;;5074824;28;20036;-90
2022/10/17 15:57:34;;;;;;;15.07;7.15;;;;;;;;;;5077166;28;20042;-91
2022/10/17 16:00:25;;;;;;;9.98;6.85;;;;;;;;;;5055366;28;20085;-91
2022/10/17 16:02:57;;;;;;;12.63;6.88;;;;;;;;;;5089500;28;20060;-91
2022/10/17 16:05:25;;;;;;;10.43;6.47;;;;;;;;;;5075377;28;20028;-89
2022/10/17 16:08:17;;;;;;;9.60;6.40;;;;;;;;;;5078994;28;20089;-89
2022/10/17 16:10:45;;;;;;;11.48;6.13;;;;;;;;;;5073551;28;20037;-89
2022/10/17 16:13:19;;;;;;;9.20;5.47;;;;;;;;;;5040674;28;20139;-90
2022/10/17 16:15:51;;;;;;;8.00;5.68;;;;;;;;;;5073641;28;20050;-90
2022/10/17 16:18:20;;;;;;;10.25;5.70;;;;;;;;;;5092214;28;20043;-89
2022/10/17 16:20:52;;;;;;;8.10;5.13;;;;;;;;;;5059649;28;20493;-90
2022/10/17 16:23:20;;;;;;;10.68;5.80;;;;;;;;;;5075111;28;20041;-89
2022/10/17 16:25:47;;;;;;;10.45;6.10;;;;;;;;;;5074150;28;20047;-90
2022/10/17 16:28:19;;;;;;;10.50;5.63;;;;;;;;;;5092255;28;20490;-89
2022/10/17 16:30:48;;;;;;;10.15;5.53;;;;;;;;;;5076490;28;20033;-90
2022/10/17 16:33:19;;;;;;;10.18;5.43;;;;;;;;;;5075890;28;20036;-90
2022/10/17 16:35:48;;;;;;;10.18;5.45;;;;;;;;;;5066285;28;20547;-89
2022/10/17 16:38:15;;;;;;;11.35;6.10;;;;;;;;;;5076424;28;20060;-89
2022/10/17 16:40:43;;;;;;;9.73;6.10;;;;;;;;;;5075139;28;20033;-89
2022/10/17 16:43:12;;;;;;;9.25;6.10;;;;;;;;;;5076389;28;20067;-89
2022/10/17 16:45:40;;;;;;;11.02;6.82;;;;;;;;;;5074166;28;20137;-89
2022/10/17 16:48:08;;;;;;;11.65;6.72;;;;;;;;;;5072745;28;20036;-88
2022/10/17 16:50:38;;;;;;;9.52;6.10;;;;;;;;;;5053998;28;20036;-88
2022/10/17 16:53:06;;;;;;;13.55;7.13;;;;;;;;;;5054842;28;20058;-91
2022/10/17 16:56:00;;;;;;;9.32;6.30;;;;;;;;;;5083904;28;20037;-88
2022/10/17 16:58:33;;;;;;;11.73;6.68;;;;;;;;;;5070825;28;20036;-86
2022/10/17 17:01:09;;;;;;;10.73;6.85;;;;;;;;;;5077632;28;20934;-86
2022/10/17 17:03:39;;;;;;;16.67;8.32;;;;;;;;;;5076677;28;20109;-89
2022/10/17 17:06:11;;;;;;;11.68;6.60;;;;;;;;;;5039763;28;20044;-88
2022/10/17 17:08:41;;;;;;;14.32;7.13;;;;;;;;;;5071286;28;20041;-90
2022/10/17 17:11:16;;;;;;;13.02;7.72;;;;;;;;;;5055761;28;20040;-90
2022/10/17 17:13:46;;;;;;;10.15;7.18;;;;;;;;;;5058323;28;20044;-90
2022/10/17 17:16:16;;;;;;;9.68;6.43;;;;;;;;;;5084218;28;20038;-90
2022/10/17 17:19:12;;;;;;;15.23;7.15;;;;;;;;;;5073380;28;20044;-90
2022/10/17 17:24:44;;;;;;;11.30;6.15;;;;;;;;;;5095287;28;20132;-94
2022/10/17 17:27:12;;;;;;;11.98;7.68;;;;;;;;;;5074582;28;20812;-93
2022/10/17 17:29:39;;;;;;;11.68;6.90;;;;;;;;;;5074892;28;20442;-92
2022/10/17 17:32:08;;;;;;;16.65;7.68;;;;;;;;;;5056812;28;20074;-92
2022/10/17 17:34:42;;;;;;;13.25;7.88;;;;;;;;;;5072970;28;20040;-92
2022/10/17 17:37:14;;;;;;;13.38;7.18;;;;;;;;;;5074314;28;20101;-92
2022/10/17 17:39:43;;;;;;;11.88;7.15;;;;;;;;;;5071736;28;20119;-92
2022/10/17 17:42:11;;;;;;;12.60;7.65;;;;;;;;;;5068926;28;20069;-93
2022/10/17 17:44:39;;;;;;;11.27;6.95;;;;;;;;;;5058376;28;20413;-92
2022/10/17 17:47:07;;;;;;;13.75;7.93;;;;;;;;;;5059530;28;20028;-92
2022/10/17 17:50:01;;;;;;;11.32;7.97;;;;;;;;;;5092997;28;20549;-93
2022/10/17 17:52:28;;;;;;;14.25;8.50;;;;;;;;;;5060985;28;20391;-91
2022/10/17 17:55:01;;;;;;;15.88;9.40;;;;;;;;;;5074041;28;20062;-93
2022/10/17 18:00:26;;;;;;;14.40;8.68;;;;;;;;;;5090571;28;20083;-92
2022/10/17 18:02:58;;;;;;;14.95;9.48;;;;;;;;;;5070966;28;20055;-92
2022/10/17 18:05:26;;;;;;;17.20;9.10;;;;;;;;;;5083816;28;20063;-93
2022/10/17 18:07:53;;;;;;;15.30;8.82;;;;;;;;;;5061830;28;20517;-93
2022/10/17 18:10:48;;;;;;;15.73;9.30;;;;;;;;;;5064629;28;20041;-94
2022/10/17 18:13:15;;;;;;;15.27;8.73;;;;;;;;;;5079736;28;20132;-94
2022/10/17 18:15:43;;;;;;;15.48;9.40;;;;;;;;;;5083073;28;20040;-92
2022/10/17 18:18:12;;;;;;;15.75;9.95;;;;;;;;;;5092250;28;20048;-93
2022/10/17 18:20:45;;;;;;;17.15;10.40;;;;;;;;;;5054009;28;20046;-93
2022/10/17 18:23:14;;;;;;;16.75;10.25;;;;;;;;;;5055507;28;20037;-92
2022/10/17 18:25:56;;;;;;;17.83;10.07;;;;;;;;;;5048896;28;20040;-92
2022/10/17 18:28:23;;;;;;;17.98;9.80;;;;;;;;;;5075216;28;20124;-93
2022/10/17 18:30:52;;;;;;;16.55;10.07;;;;;;;;;;5069459;28;20097;-94
2022/10/17 18:33:19;;;;;;;15.43;9.88;;;;;;;;;;5091351;28;20090;-92
2022/10/17 18:35:47;;;;;;;19.55;10.00;;;;;;;;;;5087839;28;20048;-92
2022/10/17 18:38:15;;;;;;;15.68;10.10;;;;;;;;;;5074979;28;20130;-93
2022/10/17 18:40:43;;;;;;;14.30;9.95;;;;;;;;;;5072243;28;20794;-93
2022/10/17 18:43:23;;;;;;;18.23;11.65;;;;;;;;;;5076557;28;20130;-93
2022/10/17 18:45:49;;;;;;;18.50;11.05;;;;;;;;;;5076285;28;20063;-93
2022/10/17 18:48:17;;;;;;;15.15;10.30;;;;;;;;;;5072123;28;20054;-92
2022/10/17 18:50:45;;;;;;;18.13;11.48;;;;;;;;;;5056018;28;20032;-92
2022/10/17 18:53:17;;;;;;;17.98;11.43;;;;;;;;;;5071234;28;20501;-93
2022/10/17 18:55:49;;;;;;;18.35;10.68;;;;;;;;;;5073817;28;20089;-93
2022/10/17 18:58:20;;;;;;;20.65;11.13;;;;;;;;;;5078210;28;20048;-91
2022/10/17 19:00:49;;;;;;;13.93;10.07;;;;;;;;;;5073930;28;20044;-93
2022/10/17 19:03:21;;;;;;;18.27;10.73;;;;;;;;;;5070574;28;20098;-92
2022/10/17 19:05:49;;;;;;;17.45;10.90;;;;;;;;;;5076578;28;20042;-93
2022/10/17 19:08:17;;;;;;;19.55;11.73;;;;;;;;;;5076914;28;20493;-93
2022/10/17 19:10:45;;;;;;;17.88;11.43;;;;;;;;;;5074029;28;20120;-92
2022/10/17 19:13:13;;;;;;;17.92;11.85;;;;;;;;;;5086841;28;20040;-92
2022/10/17 19:15:53;;;;;;;20.45;12.13;;;;;;;;;;5072176;28;20649;-90
2022/10/17 19:18:21;;;;;;;16.50;11.77;;;;;;;;;;5055193;28;20044;-90
2022/10/17 19:20:51;;;;;;;15.10;10.65;;;;;;;;;;5072139;28;20036;-90
2022/10/17 19:23:19;;;;;;;18.27;11.85;;;;;;;;;;5070669;28;20039;-91
2022/10/17 19:25:47;;;;;;;22.63;12.38;;;;;;;;;;5073572;28;20045;-90
2022/10/17 19:28:15;;;;;;;19.38;11.60;;;;;;;;;;5086947;28;20649;-90
2022/10/17 19:30:43;;;;;;;15.45;9.73;;;;;;;;;;5072500;28;20037;-91
2022/10/17 19:33:11;;;;;;;22.85;10.45;;;;;;;;;;5075434;28;20055;-91
2022/10/17 19:35:40;;;;;;;14.77;9.73;;;;;;;;;;5070056;28;20041;-91
2022/10/17 19:38:08;;;;;;;12.40;8.13;;;;;;;;;;5045691;28;20387;-91
2022/10/17 19:40:44;;;;;;;13.23;9.07;;;;;;;;;;5052616;28;20105;-91
2022/10/17 19:43:14;;;;;;;11.95;7.30;;;;;;;;;;5089094;28;20127;-92
2022/10/17 19:46:00;;;;;;;11.45;7.65;;;;;;;;;;5070474;28;20039;-91
2022/10/17 19:48:34;;;;;;;10.88;6.60;;;;;;;;;;5073440;28;20044;-91
2022/10/17 19:51:02;;;;;;;13.88;7.30;;;;;;;;;;5088673;28;20072;-91
2022/10/17 19:53:30;;;;;;;9.07;6.22;;;;;;;;;;5071208;28;20032;-90
2022/10/17 19:56:02;;;;;;;12.30;6.00;;;;;;;;;;5068826;28;20040;-90
2022/10/17 19:58:31;;;;;;;9.40;6.15;;;;;;;;;;5058131;28;20139;-90
2022/10/17 20:01:04;;;;;;;9.32;5.65;;;;;;;;;;5075112;28;20033;-90
2022/10/17 20:03:31;;;;;;;11.80;5.85;;;;;;;;;;5070097;28;20055;-90
2022/10/17 20:05:59;;;;;;;11.02;5.55;;;;;;;;;;5071502;28;20063;-90
2022/10/17 20:08:53;;;;;;;7.03;5.07;;;;;;;;;;5073505;28;20067;-89
2022/10/17 20:11:29;;;;;;;7.03;5.03;;;;;;;;;;5055787;28;20044;-90
2022/10/17 20:13:59;;;;;;;6.10;4.35;;;;;;;;;;5086661;28;20127;-90
2022/10/17 20:16:29;;;;;;;9.75;4.45;;;;;;;;;;5072785;28;20052;-91
2022/10/17 20:19:03;;;;;;;8.95;4.10;;;;;;;;;;5074763;28;20036;-90
2022/10/17 20:21:34;;;;;;;9.57;4.63;;;;;;;;;;5071253;28;20044;-91
2022/10/17 20:24:04;;;;;;;7.10;3.65;;;;;;;;;;5072052;28;20058;-90
2022/10/17 20:26:36;;;;;;;6.25;3.70;;;;;;;;;;5073043;28;20353;-91
2022/10/17 20:29:16;;;;;;;9.07;3.53;;;;;;;;;;5069524;28;20036;-91
2022/10/17 20:31:45;;;;;;;8.52;3.28;;;;;;;;;;5068906;28;20048;-91
2022/10/17 20:34:14;;;;;;;10.05;3.10;;;;;;;;;;5060891;28;20531;-90
2022/10/17 20:36:42;;;;;;;5.38;2.97;;;;;;;;;;5073616;28;20064;-91
2022/10/17 20:39:12;;;;;;;5.82;3.10;;;;;;;;;;5069599;28;20037;-91
2022/10/17 20:41:42;;;;;;;6.45;2.88;;;;;;;;;;5074133;28;20043;-90
2022/10/17 20:44:15;;;;;;;8.38;3.92;;;;;;;;;;5088256;28;20036;-91
2022/10/17 20:46:44;;;;;;;7.93;2.95;;;;;;;;;;5068056;28;20064;-90
2022/10/17 20:49:37;;;;;;;6.18;2.90;;;;;;;;;;5068271;28;20052;-91
2022/10/17 20:52:09;;;;;;;8.32;2.70;;;;;;;;;;5075301;28;20071;-91
2022/10/17 20:54:38;;;;;;;6.25;2.70;;;;;;;;;;5069792;28;20048;-92
2022/10/17 20:57:06;;;;;;;7.93;2.45;;;;;;;;;;5075685;28;20032;-91
2022/10/17 20:59:34;;;;;;;7.65;3.08;;;;;;;;;;5076856;28;20578;-90
2022/10/17 21:02:27;;;;;;;6.80;2.75;;;;;;;;;;5084205;28;20132;-89
2022/10/17 21:04:55;;;;;;;6.15;2.20;;;;;;;;;;5075339;28;20045;-89
2022/10/17 21:07:27;;;;;;;6.82;2.70;;;;;;;;;;5073709;28;20037;-89
2022/10/17 21:09:55;;;;;;;9.50;2.50;;;;;;;;;;5075318;28;20071;-89
2022/10/17 21:12:33;;;;;;;4.25;2.30;;;;;;;;;;5077536;28;20067;-89
2022/10/17 21:15:45;;;;;;;6.05;2.38;;;;;;;;;;5089153;28;20597;-89
2022/10/17 21:18:14;;;;;;;6.13;2.22;;;;;;;;;;5074095;28;20038;-89
2022/10/17 21:20:42;;;;;;;6.25;2.17;;;;;;;;;;5059693;28;20059;-89
2022/10/17 21:23:09;;;;;;;5.35;2.17;;;;;;;;;;5077411;28;20682;-89